sensor_id;sensor_type;location;lat;lon;timestamp;temperature;humidity
22065;DHT22;11197;53.110;8.468;2024-01-25T00:01:18;8.20;99.90
22065;DHT22;11197;53.110;8.468;2024-01-25T00:03:43;8.10;99.90
22065;DHT22;11197;53.110;8.468;2024-01-25T00:06:09;8.10;99.90
22065;DHT22;11197;53.110;8.468;2024-01-25T00:08:35;8.20;99.90
22065;DHT22;11197;53.110;8.468;2024-01-25T00:11:02;8.20;99.90
22065;DHT22;11197;53.110;8.468;2024-01-25T00:13:28;8.20;99.90
22065;DHT22;11197;53.110;8.468;2024-01-25T00:15:54;8.20;99.90
22065;DHT22;11197;53.110;8.468;2024-01-25T00:18:20;8.20;99.90
22065;DHT22;11197;53.110;8.468;2024-01-25T00:20:46;8.20;99.90
22065;DHT22;11197;53.110;8.468;2024-01-25T00:23:12;8.20;99.90
22065;DHT22;11197;53.110;8.468;2024-01-25T00:25:38;8.10;99.90
22065;DHT22;11197;53.110;8.468;2024-01-25T00:28:04;8.20;99.90
22065;DHT22;11197;53.110;8.468;2024-01-25T00:30:30;8.10;99.90
22065;DHT22;11197;53.110;8.468;2024-01-25T00:32:59;8.10;99.90
22065;DHT22;11197;53.110;8.468;2024-01-25T00:35:26;8.10;99.90
22065;DHT22;11197;53.110;8.468;2024-01-25T00:37:52;8.20;99.90
22065;DHT22;11197;53.110;8.468;2024-01-25T00:40:19;8.10;99.90
22065;DHT22;11197;53.110;8.468;2024-01-25T00:42:46;8.20;99.90
22065;DHT22;11197;53.110;8.468;2024-01-25T00:45:22;8.10;99.90
22065;DHT22;11197;53.110;8.468;2024-01-25T00:47:49;8.10;99.90
22065;DHT22;11197;53.110;8.468;2024-01-25T00:50:16;8.10;99.90
22065;DHT22;11197;53.110;8.468;2024-01-25T00:52:50;8.00;99.90
22065;DHT22;11197;53.110;8.468;2024-01-25T00:55:16;8.00;99.90
22065;DHT22;11197;53.110;8.468;2024-01-25T00:57:44;8.00;99.90
22065;DHT22;11197;53.110;8.468;2024-01-25T01:00:16;7.90;99.90
22065;DHT22;11197;53.110;8.468;2024-01-25T01:02:44;8.00;99.90
22065;DHT22;11197;53.110;8.468;2024-01-25T01:05:11;8.00;99.90
22065;DHT22;11197;53.110;8.468;2024-01-25T01:07:39;7.90;99.90
22065;DHT22;11197;53.110;8.468;2024-01-25T01:10:08;8.00;99.90
22065;DHT22;11197;53.110;8.468;2024-01-25T01:12:35;8.00;99.90
22065;DHT22;11197;53.110;8.468;2024-01-25T01:15:01;8.00;99.90
22065;DHT22;11197;53.110;8.468;2024-01-25T01:17:27;8.00;99.90
22065;DHT22;11197;53.110;8.468;2024-01-25T01:19:53;7.90;99.90
22065;DHT22;11197;53.110;8.468;2024-01-25T01:22:20;8.00;99.90
22065;DHT22;11197;53.110;8.468;2024-01-25T01:24:46;7.90;99.90
22065;DHT22;11197;53.110;8.468;2024-01-25T01:27:13;8.00;99.90
22065;DHT22;11197;53.110;8.468;2024-01-25T01:29:39;7.90;99.90
22065;DHT22;11197;53.110;8.468;2024-01-25T01:32:06;8.00;99.90
22065;DHT22;11197;53.110;8.468;2024-01-25T01:34:32;7.90;99.90
22065;DHT22;11197;53.110;8.468;2024-01-25T01:36:58;7.90;99.90
22065;DHT22;11197;53.110;8.468;2024-01-25T01:39:25;7.90;99.90
22065;DHT22;11197;53.110;8.468;2024-01-25T01:41:52;7.90;99.90
22065;DHT22;11197;53.110;8.468;2024-01-25T01:44:19;7.80;99.90
22065;DHT22;11197;53.110;8.468;2024-01-25T01:46:45;7.80;99.90
22065;DHT22;11197;53.110;8.468;2024-01-25T01:49:13;7.80;99.90
22065;DHT22;11197;53.110;8.468;2024-01-25T01:51:42;7.80;99.90
22065;DHT22;11197;53.110;8.468;2024-01-25T01:54:09;7.80;99.90
22065;DHT22;11197;53.110;8.468;2024-01-25T01:56:36;7.80;99.90
22065;DHT22;11197;53.110;8.468;2024-01-25T01:59:04;7.80;99.90
22065;DHT22;11197;53.110;8.468;2024-01-25T02:01:31;7.80;99.90
22065;DHT22;11197;53.110;8.468;2024-01-25T02:03:57;7.70;99.90
22065;DHT22;11197;53.110;8.468;2024-01-25T02:06:26;7.70;99.90
22065;DHT22;11197;53.110;8.468;2024-01-25T02:08:53;7.70;99.90
22065;DHT22;11197;53.110;8.468;2024-01-25T02:11:22;7.70;99.90
22065;DHT22;11197;53.110;8.468;2024-01-25T02:13:48;7.70;99.90
22065;DHT22;11197;53.110;8.468;2024-01-25T02:16:13;7.70;99.90
22065;DHT22;11197;53.110;8.468;2024-01-25T02:18:43;7.70;99.90
22065;DHT22;11197;53.110;8.468;2024-01-25T02:21:09;7.60;99.90
22065;DHT22;11197;53.110;8.468;2024-01-25T02:23:35;7.70;99.90
22065;DHT22;11197;53.110;8.468;2024-01-25T02:26:00;7.70;99.90
22065;DHT22;11197;53.110;8.468;2024-01-25T02:28:26;7.60;99.90
22065;DHT22;11197;53.110;8.468;2024-01-25T02:30:52;7.60;99.90
22065;DHT22;11197;53.110;8.468;2024-01-25T02:33:18;7.60;99.90
22065;DHT22;11197;53.110;8.468;2024-01-25T02:35:44;7.50;99.90
22065;DHT22;11197;53.110;8.468;2024-01-25T02:38:10;7.50;99.90
22065;DHT22;11197;53.110;8.468;2024-01-25T02:40:36;7.50;99.90
22065;DHT22;11197;53.110;8.468;2024-01-25T02:43:02;7.50;99.90
22065;DHT22;11197;53.110;8.468;2024-01-25T02:45:27;7.60;99.90
22065;DHT22;11197;53.110;8.468;2024-01-25T02:47:53;7.50;99.90
22065;DHT22;11197;53.110;8.468;2024-01-25T02:50:19;7.50;99.90
22065;DHT22;11197;53.110;8.468;2024-01-25T02:52:45;7.50;99.90
22065;DHT22;11197;53.110;8.468;2024-01-25T02:55:11;7.50;99.90
22065;DHT22;11197;53.110;8.468;2024-01-25T02:57:37;7.50;99.90
22065;DHT22;11197;53.110;8.468;2024-01-25T03:00:03;7.50;99.90
22065;DHT22;11197;53.110;8.468;2024-01-25T03:02:29;7.50;99.90
22065;DHT22;11197;53.110;8.468;2024-01-25T03:04:56;7.40;99.90
22065;DHT22;11197;53.110;8.468;2024-01-25T03:07:22;7.40;99.90
22065;DHT22;11197;53.110;8.468;2024-01-25T03:09:48;7.40;99.90
22065;DHT22;11197;53.110;8.468;2024-01-25T03:12:14;7.40;99.90
22065;DHT22;11197;53.110;8.468;2024-01-25T03:14:40;7.40;99.90
22065;DHT22;11197;53.110;8.468;2024-01-25T03:17:06;7.40;99.90
22065;DHT22;11197;53.110;8.468;2024-01-25T03:19:33;7.40;99.90
22065;DHT22;11197;53.110;8.468;2024-01-25T03:21:59;7.40;99.90
22065;DHT22;11197;53.110;8.468;2024-01-25T03:24:27;7.40;99.90
22065;DHT22;11197;53.110;8.468;2024-01-25T03:26:53;7.30;99.90
22065;DHT22;11197;53.110;8.468;2024-01-25T03:29:18;7.40;99.90
22065;DHT22;11197;53.110;8.468;2024-01-25T03:31:44;7.40;99.90
22065;DHT22;11197;53.110;8.468;2024-01-25T03:34:10;7.30;99.90
22065;DHT22;11197;53.110;8.468;2024-01-25T03:36:37;7.40;99.90
22065;DHT22;11197;53.110;8.468;2024-01-25T03:39:05;7.30;99.90
22065;DHT22;11197;53.110;8.468;2024-01-25T03:41:31;7.40;99.90
22065;DHT22;11197;53.110;8.468;2024-01-25T03:43:57;7.30;99.90
22065;DHT22;11197;53.110;8.468;2024-01-25T03:46:23;7.30;99.90
22065;DHT22;11197;53.110;8.468;2024-01-25T03:48:49;7.30;99.90
22065;DHT22;11197;53.110;8.468;2024-01-25T03:51:14;7.30;99.90
22065;DHT22;11197;53.110;8.468;2024-01-25T03:53:41;7.30;99.90
22065;DHT22;11197;53.110;8.468;2024-01-25T03:56:12;7.30;99.90
22065;DHT22;11197;53.110;8.468;2024-01-25T03:58:43;7.30;99.90
22065;DHT22;11197;53.110;8.468;2024-01-25T04:01:09;7.30;99.90
22065;DHT22;11197;53.110;8.468;2024-01-25T04:03:35;7.30;99.90
22065;DHT22;11197;53.110;8.468;2024-01-25T04:06:01;7.30;99.90
22065;DHT22;11197;53.110;8.468;2024-01-25T04:08:27;7.30;99.90
22065;DHT22;11197;53.110;8.468;2024-01-25T04:10:53;7.30;99.90
22065;DHT22;11197;53.110;8.468;2024-01-25T04:13:19;7.30;99.90
22065;DHT22;11197;53.110;8.468;2024-01-25T04:15:44;7.30;99.90
22065;DHT22;11197;53.110;8.468;2024-01-25T04:18:10;7.30;99.90
22065;DHT22;11197;53.110;8.468;2024-01-25T04:20:36;7.30;99.90
22065;DHT22;11197;53.110;8.468;2024-01-25T04:23:02;7.40;99.90
22065;DHT22;11197;53.110;8.468;2024-01-25T04:25:28;7.40;99.90
22065;DHT22;11197;53.110;8.468;2024-01-25T04:27:53;7.30;99.90
22065;DHT22;11197;53.110;8.468;2024-01-25T04:30:19;7.40;99.90
22065;DHT22;11197;53.110;8.468;2024-01-25T04:32:45;7.30;99.90
22065;DHT22;11197;53.110;8.468;2024-01-25T04:35:11;7.30;99.90
22065;DHT22;11197;53.110;8.468;2024-01-25T04:37:37;7.40;99.90
22065;DHT22;11197;53.110;8.468;2024-01-25T04:40:03;7.30;99.90
22065;DHT22;11197;53.110;8.468;2024-01-25T04:42:30;7.30;99.90
22065;DHT22;11197;53.110;8.468;2024-01-25T04:44:56;7.30;99.90
22065;DHT22;11197;53.110;8.468;2024-01-25T04:47:22;7.20;99.90
22065;DHT22;11197;53.110;8.468;2024-01-25T04:49:48;7.30;99.90
22065;DHT22;11197;53.110;8.468;2024-01-25T04:52:14;7.20;99.90
22065;DHT22;11197;53.110;8.468;2024-01-25T04:54:40;7.20;99.90
22065;DHT22;11197;53.110;8.468;2024-01-25T04:57:06;7.30;99.90
22065;DHT22;11197;53.110;8.468;2024-01-25T04:59:33;7.20;99.90
22065;DHT22;11197;53.110;8.468;2024-01-25T05:01:59;7.30;99.90
22065;DHT22;11197;53.110;8.468;2024-01-25T05:04:27;7.30;99.90
22065;DHT22;11197;53.110;8.468;2024-01-25T05:06:53;7.30;99.90
22065;DHT22;11197;53.110;8.468;2024-01-25T05:09:19;7.30;99.90
22065;DHT22;11197;53.110;8.468;2024-01-25T05:11:45;7.20;99.90
22065;DHT22;11197;53.110;8.468;2024-01-25T05:14:11;7.20;99.90
22065;DHT22;11197;53.110;8.468;2024-01-25T05:16:36;7.20;99.90
22065;DHT22;11197;53.110;8.468;2024-01-25T05:19:02;7.20;99.90
22065;DHT22;11197;53.110;8.468;2024-01-25T05:21:28;7.20;99.90
22065;DHT22;11197;53.110;8.468;2024-01-25T05:23:54;7.20;99.90
22065;DHT22;11197;53.110;8.468;2024-01-25T05:26:20;7.10;99.90
22065;DHT22;11197;53.110;8.468;2024-01-25T05:28:46;7.10;99.90
22065;DHT22;11197;53.110;8.468;2024-01-25T05:31:12;7.20;99.90
22065;DHT22;11197;53.110;8.468;2024-01-25T05:33:39;7.10;99.90
22065;DHT22;11197;53.110;8.468;2024-01-25T05:36:05;7.10;99.90
22065;DHT22;11197;53.110;8.468;2024-01-25T05:38:31;7.10;99.90
22065;DHT22;11197;53.110;8.468;2024-01-25T05:40:58;7.10;99.90
22065;DHT22;11197;53.110;8.468;2024-01-25T05:43:24;7.10;99.90
22065;DHT22;11197;53.110;8.468;2024-01-25T05:45:50;7.10;99.90
22065;DHT22;11197;53.110;8.468;2024-01-25T05:48:16;7.10;99.90
22065;DHT22;11197;53.110;8.468;2024-01-25T05:50:42;7.10;99.90
22065;DHT22;11197;53.110;8.468;2024-01-25T05:53:07;7.10;99.90
22065;DHT22;11197;53.110;8.468;2024-01-25T05:55:33;7.10;99.90
22065;DHT22;11197;53.110;8.468;2024-01-25T05:57:59;7.10;99.90
22065;DHT22;11197;53.110;8.468;2024-01-25T06:00:25;7.10;99.90
22065;DHT22;11197;53.110;8.468;2024-01-25T06:02:51;7.10;99.90
22065;DHT22;11197;53.110;8.468;2024-01-25T06:05:16;7.10;99.90
22065;DHT22;11197;53.110;8.468;2024-01-25T06:07:44;7.10;99.90
22065;DHT22;11197;53.110;8.468;2024-01-25T06:10:10;7.10;99.90
22065;DHT22;11197;53.110;8.468;2024-01-25T06:12:36;7.00;99.90
22065;DHT22;11197;53.110;8.468;2024-01-25T06:15:01;7.00;99.90
22065;DHT22;11197;53.110;8.468;2024-01-25T06:17:27;7.00;99.90
22065;DHT22;11197;53.110;8.468;2024-01-25T06:19:53;7.10;99.90
22065;DHT22;11197;53.110;8.468;2024-01-25T06:22:19;7.10;99.90
22065;DHT22;11197;53.110;8.468;2024-01-25T06:24:45;7.00;99.90
22065;DHT22;11197;53.110;8.468;2024-01-25T06:27:11;7.00;99.90
22065;DHT22;11197;53.110;8.468;2024-01-25T06:29:36;7.00;99.90
22065;DHT22;11197;53.110;8.468;2024-01-25T06:32:04;7.10;99.90
22065;DHT22;11197;53.110;8.468;2024-01-25T06:34:30;7.00;99.90
22065;DHT22;11197;53.110;8.468;2024-01-25T06:36:56;7.00;99.90
22065;DHT22;11197;53.110;8.468;2024-01-25T06:39:22;7.00;99.90
22065;DHT22;11197;53.110;8.468;2024-01-25T06:41:47;7.10;99.90
22065;DHT22;11197;53.110;8.468;2024-01-25T06:44:13;7.00;99.90
22065;DHT22;11197;53.110;8.468;2024-01-25T06:46:39;7.00;99.90
22065;DHT22;11197;53.110;8.468;2024-01-25T06:49:05;7.00;99.90
22065;DHT22;11197;53.110;8.468;2024-01-25T06:51:32;7.00;99.90
22065;DHT22;11197;53.110;8.468;2024-01-25T06:53:58;7.00;99.90
22065;DHT22;11197;53.110;8.468;2024-01-25T06:56:24;7.00;99.90
22065;DHT22;11197;53.110;8.468;2024-01-25T06:58:49;7.00;99.90
22065;DHT22;11197;53.110;8.468;2024-01-25T07:01:24;7.00;99.90
22065;DHT22;11197;53.110;8.468;2024-01-25T07:03:50;7.00;99.90
22065;DHT22;11197;53.110;8.468;2024-01-25T07:06:17;7.00;99.90
22065;DHT22;11197;53.110;8.468;2024-01-25T07:08:44;7.00;99.90
22065;DHT22;11197;53.110;8.468;2024-01-25T07:11:10;7.00;99.90
22065;DHT22;11197;53.110;8.468;2024-01-25T07:13:36;7.10;99.90
22065;DHT22;11197;53.110;8.468;2024-01-25T07:16:01;7.00;99.90
22065;DHT22;11197;53.110;8.468;2024-01-25T07:18:27;7.10;99.90
22065;DHT22;11197;53.110;8.468;2024-01-25T07:20:53;7.00;99.90
22065;DHT22;11197;53.110;8.468;2024-01-25T07:23:21;7.00;99.90
22065;DHT22;11197;53.110;8.468;2024-01-25T07:25:47;7.10;99.90
22065;DHT22;11197;53.110;8.468;2024-01-25T07:28:13;7.00;99.90
22065;DHT22;11197;53.110;8.468;2024-01-25T07:30:39;7.10;99.90
22065;DHT22;11197;53.110;8.468;2024-01-25T07:33:05;7.10;99.90
22065;DHT22;11197;53.110;8.468;2024-01-25T07:35:32;7.20;99.90
22065;DHT22;11197;53.110;8.468;2024-01-25T07:37:58;7.30;99.90
22065;DHT22;11197;53.110;8.468;2024-01-25T07:40:23;7.40;99.90
22065;DHT22;11197;53.110;8.468;2024-01-25T07:42:49;7.40;99.90
22065;DHT22;11197;53.110;8.468;2024-01-25T07:45:15;7.40;99.90
22065;DHT22;11197;53.110;8.468;2024-01-25T07:47:42;7.30;99.90
22065;DHT22;11197;53.110;8.468;2024-01-25T07:50:08;7.30;99.90
22065;DHT22;11197;53.110;8.468;2024-01-25T07:52:34;7.30;99.90
22065;DHT22;11197;53.110;8.468;2024-01-25T07:54:59;7.30;99.90
22065;DHT22;11197;53.110;8.468;2024-01-25T07:57:25;7.20;99.90
22065;DHT22;11197;53.110;8.468;2024-01-25T07:59:51;7.20;99.90
22065;DHT22;11197;53.110;8.468;2024-01-25T08:02:17;7.20;99.90
22065;DHT22;11197;53.110;8.468;2024-01-25T08:04:43;7.20;99.90
22065;DHT22;11197;53.110;8.468;2024-01-25T08:07:08;7.10;99.90
22065;DHT22;11197;53.110;8.468;2024-01-25T08:09:34;7.10;99.90
22065;DHT22;11197;53.110;8.468;2024-01-25T08:12:00;7.10;99.90
22065;DHT22;11197;53.110;8.468;2024-01-25T08:14:26;7.10;99.90
22065;DHT22;11197;53.110;8.468;2024-01-25T08:16:52;7.10;99.90
22065;DHT22;11197;53.110;8.468;2024-01-25T08:19:17;7.10;99.90
22065;DHT22;11197;53.110;8.468;2024-01-25T08:21:44;7.10;99.90
22065;DHT22;11197;53.110;8.468;2024-01-25T08:24:11;7.10;99.90
22065;DHT22;11197;53.110;8.468;2024-01-25T08:26:37;7.10;99.90
22065;DHT22;11197;53.110;8.468;2024-01-25T08:29:03;7.10;99.90
22065;DHT22;11197;53.110;8.468;2024-01-25T08:31:28;7.10;99.90
22065;DHT22;11197;53.110;8.468;2024-01-25T08:33:57;7.10;99.90
22065;DHT22;11197;53.110;8.468;2024-01-25T08:36:23;7.10;99.90
22065;DHT22;11197;53.110;8.468;2024-01-25T08:38:50;7.20;99.90
22065;DHT22;11197;53.110;8.468;2024-01-25T08:41:16;7.10;99.90
22065;DHT22;11197;53.110;8.468;2024-01-25T08:43:42;7.20;99.90
22065;DHT22;11197;53.110;8.468;2024-01-25T08:46:08;7.20;99.90
22065;DHT22;11197;53.110;8.468;2024-01-25T08:48:34;7.20;99.90
22065;DHT22;11197;53.110;8.468;2024-01-25T08:51:00;7.20;99.90
22065;DHT22;11197;53.110;8.468;2024-01-25T08:53:27;7.20;99.90
22065;DHT22;11197;53.110;8.468;2024-01-25T08:55:53;7.20;99.90
22065;DHT22;11197;53.110;8.468;2024-01-25T08:58:20;7.20;99.90
22065;DHT22;11197;53.110;8.468;2024-01-25T09:00:46;7.20;99.90
22065;DHT22;11197;53.110;8.468;2024-01-25T09:03:13;7.20;99.90
22065;DHT22;11197;53.110;8.468;2024-01-25T09:05:39;7.20;99.90
22065;DHT22;11197;53.110;8.468;2024-01-25T09:08:14;7.20;99.90
22065;DHT22;11197;53.110;8.468;2024-01-25T09:10:41;7.20;99.90
22065;DHT22;11197;53.110;8.468;2024-01-25T09:13:08;7.20;99.90
22065;DHT22;11197;53.110;8.468;2024-01-25T09:15:34;7.30;99.90
22065;DHT22;11197;53.110;8.468;2024-01-25T09:18:00;7.30;99.90
22065;DHT22;11197;53.110;8.468;2024-01-25T09:20:26;7.20;99.90
22065;DHT22;11197;53.110;8.468;2024-01-25T09:22:52;7.30;99.90
22065;DHT22;11197;53.110;8.468;2024-01-25T09:25:20;7.30;99.90
22065;DHT22;11197;53.110;8.468;2024-01-25T09:27:47;7.20;99.90
22065;DHT22;11197;53.110;8.468;2024-01-25T09:30:14;7.20;99.90
22065;DHT22;11197;53.110;8.468;2024-01-25T09:32:40;7.30;99.90
22065;DHT22;11197;53.110;8.468;2024-01-25T09:35:06;7.20;99.90
22065;DHT22;11197;53.110;8.468;2024-01-25T09:37:33;7.30;99.90
22065;DHT22;11197;53.110;8.468;2024-01-25T09:39:59;7.40;99.90
22065;DHT22;11197;53.110;8.468;2024-01-25T09:42:25;7.30;99.90
22065;DHT22;11197;53.110;8.468;2024-01-25T09:44:54;7.30;99.90
22065;DHT22;11197;53.110;8.468;2024-01-25T09:47:20;7.30;99.90
22065;DHT22;11197;53.110;8.468;2024-01-25T09:49:47;7.30;99.90
22065;DHT22;11197;53.110;8.468;2024-01-25T09:52:13;7.30;99.90
22065;DHT22;11197;53.110;8.468;2024-01-25T09:54:39;7.40;99.90
22065;DHT22;11197;53.110;8.468;2024-01-25T09:57:20;7.40;99.90
22065;DHT22;11197;53.110;8.468;2024-01-25T09:59:48;7.30;99.90
22065;DHT22;11197;53.110;8.468;2024-01-25T10:02:16;7.40;99.90
22065;DHT22;11197;53.110;8.468;2024-01-25T10:04:41;7.40;99.90
22065;DHT22;11197;53.110;8.468;2024-01-25T10:07:07;7.40;99.90
22065;DHT22;11197;53.110;8.468;2024-01-25T10:09:41;7.40;99.90
22065;DHT22;11197;53.110;8.468;2024-01-25T10:12:08;7.40;99.90
22065;DHT22;11197;53.110;8.468;2024-01-25T10:14:34;7.40;99.90
22065;DHT22;11197;53.110;8.468;2024-01-25T10:17:00;7.40;99.90
22065;DHT22;11197;53.110;8.468;2024-01-25T10:19:26;7.40;99.90
22065;DHT22;11197;53.110;8.468;2024-01-25T10:21:53;7.40;99.90
22065;DHT22;11197;53.110;8.468;2024-01-25T10:24:19;7.40;99.90
22065;DHT22;11197;53.110;8.468;2024-01-25T10:26:44;7.40;99.90
22065;DHT22;11197;53.110;8.468;2024-01-25T10:29:10;7.40;99.90
22065;DHT22;11197;53.110;8.468;2024-01-25T10:31:38;7.50;99.90
22065;DHT22;11197;53.110;8.468;2024-01-25T10:34:08;7.40;99.90
22065;DHT22;11197;53.110;8.468;2024-01-25T10:36:37;7.50;99.90
22065;DHT22;11197;53.110;8.468;2024-01-25T10:39:03;7.50;99.90
22065;DHT22;11197;53.110;8.468;2024-01-25T10:41:31;7.40;99.90
22065;DHT22;11197;53.110;8.468;2024-01-25T10:43:58;7.50;99.90
22065;DHT22;11197;53.110;8.468;2024-01-25T10:46:24;7.50;99.90
22065;DHT22;11197;53.110;8.468;2024-01-25T10:48:51;7.50;99.90
22065;DHT22;11197;53.110;8.468;2024-01-25T10:51:17;7.50;99.90
22065;DHT22;11197;53.110;8.468;2024-01-25T10:53:46;7.60;99.90
22065;DHT22;11197;53.110;8.468;2024-01-25T10:56:12;7.60;99.90
22065;DHT22;11197;53.110;8.468;2024-01-25T10:58:41;7.60;99.90
22065;DHT22;11197;53.110;8.468;2024-01-25T11:01:10;7.60;99.90
22065;DHT22;11197;53.110;8.468;2024-01-25T11:03:39;7.60;99.90
22065;DHT22;11197;53.110;8.468;2024-01-25T11:06:09;7.70;99.90
22065;DHT22;11197;53.110;8.468;2024-01-25T11:08:36;7.70;99.90
22065;DHT22;11197;53.110;8.468;2024-01-25T11:11:06;7.70;99.90
22065;DHT22;11197;53.110;8.468;2024-01-25T11:13:34;7.70;99.90
22065;DHT22;11197;53.110;8.468;2024-01-25T11:16:30;7.70;99.90
22065;DHT22;11197;53.110;8.468;2024-01-25T11:18:58;7.70;99.90
22065;DHT22;11197;53.110;8.468;2024-01-25T11:22:03;7.70;99.90
22065;DHT22;11197;53.110;8.468;2024-01-25T11:24:28;7.70;99.90
22065;DHT22;11197;53.110;8.468;2024-01-25T11:26:55;7.70;99.90
22065;DHT22;11197;53.110;8.468;2024-01-25T11:29:22;7.80;99.90
22065;DHT22;11197;53.110;8.468;2024-01-25T11:31:50;7.70;99.90
22065;DHT22;11197;53.110;8.468;2024-01-25T11:34:17;7.80;99.90
22065;DHT22;11197;53.110;8.468;2024-01-25T11:36:46;7.80;99.90
22065;DHT22;11197;53.110;8.468;2024-01-25T11:39:13;7.80;99.90
22065;DHT22;11197;53.110;8.468;2024-01-25T11:41:39;7.80;99.90
22065;DHT22;11197;53.110;8.468;2024-01-25T11:44:05;7.80;99.90
22065;DHT22;11197;53.110;8.468;2024-01-25T11:46:31;7.80;99.90
22065;DHT22;11197;53.110;8.468;2024-01-25T11:49:00;7.80;99.90
22065;DHT22;11197;53.110;8.468;2024-01-25T11:51:26;7.80;99.90
22065;DHT22;11197;53.110;8.468;2024-01-25T11:53:52;7.80;99.90
22065;DHT22;11197;53.110;8.468;2024-01-25T11:56:22;7.80;99.90
22065;DHT22;11197;53.110;8.468;2024-01-25T11:58:51;7.80;99.90
22065;DHT22;11197;53.110;8.468;2024-01-25T12:01:17;7.90;99.90
22065;DHT22;11197;53.110;8.468;2024-01-25T12:03:44;7.90;99.90
22065;DHT22;11197;53.110;8.468;2024-01-25T12:06:12;7.90;99.90
22065;DHT22;11197;53.110;8.468;2024-01-25T12:08:38;7.90;99.90
22065;DHT22;11197;53.110;8.468;2024-01-25T12:11:10;7.90;99.90
22065;DHT22;11197;53.110;8.468;2024-01-25T12:13:43;8.00;99.90
22065;DHT22;11197;53.110;8.468;2024-01-25T12:16:09;8.00;99.90
22065;DHT22;11197;53.110;8.468;2024-01-25T12:18:36;8.00;99.90
22065;DHT22;11197;53.110;8.468;2024-01-25T12:21:08;8.10;99.90
22065;DHT22;11197;53.110;8.468;2024-01-25T12:23:39;8.00;99.90
22065;DHT22;11197;53.110;8.468;2024-01-25T12:26:17;8.10;99.90
22065;DHT22;11197;53.110;8.468;2024-01-25T12:28:43;8.00;99.90
22065;DHT22;11197;53.110;8.468;2024-01-25T12:31:08;8.00;99.90
22065;DHT22;11197;53.110;8.468;2024-01-25T12:33:34;8.00;99.90
22065;DHT22;11197;53.110;8.468;2024-01-25T12:36:02;8.00;99.90
22065;DHT22;11197;53.110;8.468;2024-01-25T12:38:28;8.00;99.90
22065;DHT22;11197;53.110;8.468;2024-01-25T12:40:56;8.00;99.90
22065;DHT22;11197;53.110;8.468;2024-01-25T12:43:22;8.00;99.90
22065;DHT22;11197;53.110;8.468;2024-01-25T12:45:48;7.90;99.90
22065;DHT22;11197;53.110;8.468;2024-01-25T12:48:15;7.90;99.90
22065;DHT22;11197;53.110;8.468;2024-01-25T12:50:41;7.90;99.90
22065;DHT22;11197;53.110;8.468;2024-01-25T12:53:07;7.80;99.90
22065;DHT22;11197;53.110;8.468;2024-01-25T12:55:33;7.80;99.90
22065;DHT22;11197;53.110;8.468;2024-01-25T12:58:00;7.90;99.90
22065;DHT22;11197;53.110;8.468;2024-01-25T13:00:26;7.90;99.90
22065;DHT22;11197;53.110;8.468;2024-01-25T13:02:52;7.90;99.90
22065;DHT22;11197;53.110;8.468;2024-01-25T13:05:20;7.90;99.90
22065;DHT22;11197;53.110;8.468;2024-01-25T13:07:46;7.90;99.90
22065;DHT22;11197;53.110;8.468;2024-01-25T13:10:13;7.90;99.90
22065;DHT22;11197;53.110;8.468;2024-01-25T13:12:39;8.00;99.90
22065;DHT22;11197;53.110;8.468;2024-01-25T13:15:06;8.00;99.90
22065;DHT22;11197;53.110;8.468;2024-01-25T13:17:34;8.00;99.90
22065;DHT22;11197;53.110;8.468;2024-01-25T13:20:02;8.00;99.90
22065;DHT22;11197;53.110;8.468;2024-01-25T13:22:28;8.00;99.90
22065;DHT22;11197;53.110;8.468;2024-01-25T13:24:55;8.00;99.90
22065;DHT22;11197;53.110;8.468;2024-01-25T13:27:21;8.00;99.90
22065;DHT22;11197;53.110;8.468;2024-01-25T13:29:47;8.00;99.90
22065;DHT22;11197;53.110;8.468;2024-01-25T13:32:13;8.00;99.90
22065;DHT22;11197;53.110;8.468;2024-01-25T13:34:38;8.00;99.90
22065;DHT22;11197;53.110;8.468;2024-01-25T13:37:04;8.00;99.90
22065;DHT22;11197;53.110;8.468;2024-01-25T13:39:30;8.00;99.90
22065;DHT22;11197;53.110;8.468;2024-01-25T13:41:56;7.90;99.90
22065;DHT22;11197;53.110;8.468;2024-01-25T13:44:24;7.90;99.90
22065;DHT22;11197;53.110;8.468;2024-01-25T13:46:50;8.00;99.90
22065;DHT22;11197;53.110;8.468;2024-01-25T13:49:16;7.90;99.90
22065;DHT22;11197;53.110;8.468;2024-01-25T13:51:44;7.90;99.90
22065;DHT22;11197;53.110;8.468;2024-01-25T13:54:10;7.90;99.90
22065;DHT22;11197;53.110;8.468;2024-01-25T13:56:36;7.90;99.90
22065;DHT22;11197;53.110;8.468;2024-01-25T13:59:01;7.90;99.90
22065;DHT22;11197;53.110;8.468;2024-01-25T14:01:27;7.90;99.90
22065;DHT22;11197;53.110;8.468;2024-01-25T14:03:53;7.90;99.90
22065;DHT22;11197;53.110;8.468;2024-01-25T14:06:19;7.90;99.90
22065;DHT22;11197;53.110;8.468;2024-01-25T14:08:44;7.90;99.90
22065;DHT22;11197;53.110;8.468;2024-01-25T14:11:10;7.90;99.90
22065;DHT22;11197;53.110;8.468;2024-01-25T14:13:36;7.90;99.90
22065;DHT22;11197;53.110;8.468;2024-01-25T14:16:02;7.90;99.90
22065;DHT22;11197;53.110;8.468;2024-01-25T14:18:28;7.90;99.90
22065;DHT22;11197;53.110;8.468;2024-01-25T14:20:55;7.90;99.90
22065;DHT22;11197;53.110;8.468;2024-01-25T14:23:21;7.90;99.90
22065;DHT22;11197;53.110;8.468;2024-01-25T14:25:46;7.90;99.90
22065;DHT22;11197;53.110;8.468;2024-01-25T14:28:12;7.90;99.90
22065;DHT22;11197;53.110;8.468;2024-01-25T14:30:38;7.90;99.90
22065;DHT22;11197;53.110;8.468;2024-01-25T14:33:04;7.90;99.90
22065;DHT22;11197;53.110;8.468;2024-01-25T14:35:29;7.90;99.90
22065;DHT22;11197;53.110;8.468;2024-01-25T14:37:56;7.90;99.90
22065;DHT22;11197;53.110;8.468;2024-01-25T14:40:22;8.00;99.90
22065;DHT22;11197;53.110;8.468;2024-01-25T14:42:48;8.00;99.90
22065;DHT22;11197;53.110;8.468;2024-01-25T14:45:15;8.00;99.90
22065;DHT22;11197;53.110;8.468;2024-01-25T14:47:40;7.90;99.90
22065;DHT22;11197;53.110;8.468;2024-01-25T14:50:06;7.90;99.90
22065;DHT22;11197;53.110;8.468;2024-01-25T14:52:32;7.90;99.90
22065;DHT22;11197;53.110;8.468;2024-01-25T14:55:03;8.00;99.90
22065;DHT22;11197;53.110;8.468;2024-01-25T14:57:30;7.90;99.90
22065;DHT22;11197;53.110;8.468;2024-01-25T14:59:56;7.90;99.90
22065;DHT22;11197;53.110;8.468;2024-01-25T15:02:21;7.90;99.90
22065;DHT22;11197;53.110;8.468;2024-01-25T15:04:47;7.90;99.90
22065;DHT22;11197;53.110;8.468;2024-01-25T15:07:13;7.90;99.90
22065;DHT22;11197;53.110;8.468;2024-01-25T15:09:40;7.90;99.90
22065;DHT22;11197;53.110;8.468;2024-01-25T15:12:07;7.90;99.90
22065;DHT22;11197;53.110;8.468;2024-01-25T15:14:33;7.80;99.90
22065;DHT22;11197;53.110;8.468;2024-01-25T15:16:59;7.80;99.90
22065;DHT22;11197;53.110;8.468;2024-01-25T15:19:25;7.80;99.90
22065;DHT22;11197;53.110;8.468;2024-01-25T15:21:50;7.80;99.90
22065;DHT22;11197;53.110;8.468;2024-01-25T15:24:16;7.80;99.90
22065;DHT22;11197;53.110;8.468;2024-01-25T15:26:42;7.70;99.90
22065;DHT22;11197;53.110;8.468;2024-01-25T15:29:09;7.80;99.90
22065;DHT22;11197;53.110;8.468;2024-01-25T15:31:35;7.70;99.90
22065;DHT22;11197;53.110;8.468;2024-01-25T15:34:00;7.70;99.90
22065;DHT22;11197;53.110;8.468;2024-01-25T15:36:26;7.70;99.90
22065;DHT22;11197;53.110;8.468;2024-01-25T15:38:52;7.70;99.90
22065;DHT22;11197;53.110;8.468;2024-01-25T15:41:18;7.70;99.90